Time;durP1;ratioP1;P1;durP2;ratioP2;P2;SDS_P1;SDS_P2;PMS_P1;PMS_P2;Temp;Humidity;BMP_temperature;BMP_pressure;BME280_temperature;BME280_humidity;BME280_pressure;Samples;Min_cycle;Max_cycle;Signal;HPM_P1;HPM_P2
2021/07/05 00:01:41;;;;;;;2.35;0.90;;;16.60;83.10;;;15.42;82.09;95756.38;4989977;28;20414;-65
2021/07/05 00:04:07;;;;;;;2.10;0.82;;;16.60;83.00;;;15.41;82.16;95760.06;4997167;28;20038;-65
2021/07/05 00:06:33;;;;;;;2.92;1.00;;;16.50;83.10;;;15.38;81.01;95765.78;4993464;28;20065;-65
2021/07/05 00:08:59;;;;;;;4.10;0.90;;;16.40;83.20;;;15.35;80.62;95763.59;4975655;28;20137;-64
2021/07/05 00:11:25;;;;;;;2.17;0.98;;;16.40;83.50;;;15.32;80.74;95763.03;4994491;28;20533;-65
2021/07/05 00:13:51;;;;;;;3.80;1.38;;;16.50;83.20;;;15.31;82.19;95766.72;4992554;28;20036;-64
2021/07/05 00:16:17;;;;;;;2.97;0.93;;;16.50;83.10;;;15.31;81.48;95761.41;4993673;28;20065;-65
2021/07/05 00:18:42;;;;;;;3.38;1.00;;;16.50;83.20;;;15.32;81.27;95760.38;4984359;28;20076;-66
2021/07/05 00:21:08;;;;;;;5.03;1.10;;;16.50;83.00;;;15.31;81.28;95763.25;5002294;28;20126;-65
2021/07/05 00:23:34;;;;;;;3.60;0.65;;;16.50;82.70;;;15.30;80.61;95769.59;4958873;28;20041;-65
2021/07/05 00:26:00;;;;;;;1.85;0.85;;;16.40;82.60;;;15.25;80.70;95772.91;4999941;28;20038;-65
2021/07/05 00:28:25;;;;;;;3.72;1.05;;;16.40;83.00;;;15.24;80.74;95773.97;4976290;28;20088;-65
2021/07/05 00:30:51;;;;;;;3.42;0.55;;;16.40;83.00;;;15.23;81.32;95775.00;5006555;28;20076;-65
2021/07/05 00:33:17;;;;;;;4.18;0.70;;;16.30;83.40;;;15.25;80.75;95767.63;5008409;28;20046;-65
2021/07/05 00:35:43;;;;;;;6.35;0.82;;;16.40;83.10;;;15.24;81.25;95776.59;4963483;28;20081;-66
2021/07/05 00:38:08;;;;;;;2.70;0.80;;;16.40;83.10;;;15.24;80.99;95773.97;4960382;28;20065;-65
2021/07/05 00:40:34;;;;;;;2.75;0.80;;;16.40;82.60;;;15.24;81.64;95771.31;5008276;28;20115;-65
2021/07/05 00:43:00;;;;;;;2.55;0.70;;;16.50;82.70;;;15.22;80.62;95768.06;4961102;28;20395;-65
2021/07/05 00:45:30;;;;;;;1.38;0.73;;;16.30;82.50;;;15.21;81.89;95766.47;4989936;28;20096;-65
2021/07/05 00:47:56;;;;;;;2.00;0.40;;;16.40;82.60;;;15.18;81.77;95764.28;4974701;28;20407;-65
2021/07/05 00:50:24;;;;;;;1.60;0.75;;;16.30;82.20;;;15.16;80.16;95758.38;4994100;28;20038;-66
2021/07/05 00:52:54;;;;;;;1.92;0.80;;;16.30;82.40;;;15.15;81.53;95751.44;4999551;28;20062;-66
2021/07/05 00:55:20;;;;;;;3.60;0.70;;;16.30;82.40;;;15.11;81.21;95745.00;4974389;28;20044;-66
2021/07/05 00:57:45;;;;;;;1.95;0.60;;;16.20;82.20;;;15.06;80.45;95747.50;4994071;28;20450;-66
2021/07/05 01:00:14;;;;;;;1.13;0.50;;;16.20;82.40;;;15.04;80.66;95749.59;4966282;28;20125;-66
2021/07/05 01:02:40;;;;;;;1.90;0.60;;;16.20;82.50;;;15.00;81.19;95753.72;4989274;28;20142;-66
2021/07/05 01:05:06;;;;;;;2.67;0.55;;;16.10;82.50;;;14.93;80.32;95758.28;4990924;28;20045;-66
2021/07/05 01:07:32;;;;;;;2.42;0.75;;;16.00;82.60;;;14.90;80.47;95753.44;4986694;28;20117;-66
2021/07/05 01:09:57;;;;;;;3.55;0.77;;;16.00;82.60;;;14.88;80.88;95760.78;4961263;28;20054;-65
2021/07/05 01:12:23;;;;;;;3.33;0.80;;;16.00;82.80;;;14.85;80.55;95753.31;4960421;28;20124;-66
2021/07/05 01:14:49;;;;;;;1.95;0.55;;;16.00;82.60;;;14.79;81.06;95751.56;4985486;28;20077;-66
2021/07/05 01:17:15;;;;;;;3.42;0.73;;;15.80;82.90;;;14.70;81.52;95748.38;4973736;28;20046;-65
2021/07/05 01:19:44;;;;;;;1.25;0.85;;;15.70;83.20;;;14.65;81.21;95746.41;4986580;28;20065;-66
2021/07/05 01:22:10;;;;;;;4.05;1.10;;;15.70;83.40;;;14.65;80.92;95766.78;4985727;23;20098;-68
2021/07/05 01:24:36;;;;;;;1.13;0.65;;;15.70;83.20;;;14.58;80.70;95761.59;4972579;28;20098;-68
2021/07/05 01:27:02;;;;;;;2.80;0.90;;;15.60;83.40;;;14.55;81.79;95769.97;4964905;28;20518;-68
2021/07/05 01:29:28;;;;;;;1.88;0.93;;;15.60;83.50;;;14.49;82.13;95754.97;4950621;28;20042;-68
2021/07/05 01:31:58;;;;;;;1.15;0.60;;;15.50;83.70;;;14.47;81.77;95758.84;4967085;28;20073;-68
2021/07/05 01:34:24;;;;;;;1.58;0.73;;;15.50;83.70;;;14.40;81.84;95740.38;4984072;28;20027;-68
2021/07/05 01:36:50;;;;;;;1.58;0.90;;;15.40;83.60;;;14.36;80.96;95749.78;4962229;28;20039;-68
2021/07/05 01:39:16;;;;;;;4.32;0.90;;;15.40;83.80;;;14.36;81.05;95757.72;4959452;28;20046;-68
2021/07/05 01:41:42;;;;;;;1.10;0.60;;;15.50;83.60;;;14.39;80.99;95757.28;4975657;28;20509;-68
2021/07/05 01:44:08;;;;;;;3.45;0.70;;;15.60;83.30;;;14.35;81.06;95751.63;4969114;28;20038;-65
2021/07/05 01:46:34;;;;;;;3.30;0.70;;;15.40;83.70;;;14.33;81.27;95750.25;4964735;28;20069;-67
2021/07/05 01:48:59;;;;;;;3.15;0.60;;;15.50;83.70;;;14.32;80.95;95748.63;4975740;28;20035;-66
2021/07/05 01:51:25;;;;;;;3.65;1.15;;;15.40;83.70;;;14.35;82.53;95753.47;4964912;28;20089;-66
2021/07/05 01:53:51;;;;;;;1.33;0.50;;;15.50;83.50;;;14.34;81.63;95749.22;4969852;28;20062;-67
2021/07/05 01:56:17;;;;;;;1.63;0.70;;;15.50;83.50;;;14.34;81.44;95744.72;4971109;28;20045;-67
2021/07/05 01:58:42;;;;;;;3.55;0.90;;;15.50;83.40;;;14.36;81.00;95747.16;4983246;28;20046;-67
2021/07/05 02:01:08;;;;;;;0.55;0.45;;;15.60;83.30;;;14.39;82.46;95752.00;4956681;28;20097;-67
2021/07/05 02:03:34;;;;;;;2.92;0.70;;;15.60;83.20;;;14.38;80.76;95750.38;4934667;28;20131;-67
2021/07/05 02:06:00;;;;;;;5.10;1.05;;;15.50;83.20;;;14.35;81.31;95756.13;4943642;28;20070;-67
2021/07/05 02:08:26;;;;;;;2.20;0.68;;;15.50;83.40;;;14.38;81.84;95760.97;4979078;28;20088;-67
2021/07/05 02:10:51;;;;;;;0.98;0.70;;;15.60;83.60;;;14.36;81.25;95747.16;4952717;28;20046;-67
2021/07/05 02:13:29;;;;;;;1.95;0.73;;;15.60;83.60;;;14.38;82.69;95750.38;4969018;28;20418;-67
2021/07/05 02:15:56;;;;;;;3.70;0.77;;;15.60;83.40;;;14.37;82.06;95738.19;4981612;28;20031;-66
2021/07/05 02:18:23;;;;;;;1.40;0.80;;;15.60;83.30;;;14.40;81.95;95737.75;4950418;28;20086;-67
2021/07/05 02:20:48;;;;;;;4.10;1.70;;;15.70;83.00;;;14.40;81.07;95729.81;4965615;28;20042;-67
2021/07/05 02:23:16;;;;;;;7.10;2.53;;;15.70;83.00;;;14.43;82.10;95736.47;4985445;28;20035;-67
2021/07/05 02:25:42;;;;;;;3.17;1.55;;;15.70;83.20;;;14.47;81.24;95722.59;4985560;28;20046;-67
2021/07/05 02:28:16;;;;;;;1.30;0.85;;;15.80;83.10;;;14.50;83.02;95732.78;4969182;28;20160;-66
2021/07/05 02:30:44;;;;;;;4.72;1.83;;;15.80;82.70;;;14.49;82.71;95731.16;4983680;28;20039;-66
2021/07/05 02:33:10;;;;;;;3.50;1.55;;;15.80;82.60;;;14.49;81.90;95748.88;4978517;28;20034;-66
2021/07/05 02:35:36;;;;;;;2.60;1.33;;;15.70;83.00;;;14.47;82.23;95743.78;4947635;28;20519;-66
2021/07/05 02:38:04;;;;;;;3.35;1.60;;;15.70;83.00;;;14.50;82.92;95751.31;4984967;28;20050;-67
2021/07/05 02:40:33;;;;;;;1.55;0.95;;;15.80;83.20;;;14.53;82.54;95752.69;4981665;28;20399;-66
2021/07/05 02:42:59;;;;;;;4.03;1.00;;;15.90;82.80;;;14.56;82.85;95749.59;4981187;28;20177;-66
2021/07/05 02:45:26;;;;;;;1.77;0.80;;;15.80;82.70;;;14.54;82.48;95733.94;4952156;28;20092;-66
2021/07/05 02:48:01;;;;;;;2.15;0.82;;;16.00;82.60;;;14.61;82.11;95749.72;4976776;28;20131;-66
2021/07/05 02:50:27;;;;;;;10.30;4.72;;;16.00;82.70;;;14.62;81.95;95736.28;4978885;28;20462;-66
2021/07/05 02:52:53;;;;;;;2.90;1.23;;;16.00;82.40;;;14.61;81.46;95739.94;4950929;28;20039;-67
2021/07/05 02:55:19;;;;;;;2.88;1.00;;;15.90;82.30;;;14.62;81.20;95741.56;4969213;28;20031;-66
2021/07/05 02:57:45;;;;;;;5.07;3.47;;;15.90;82.40;;;14.65;82.50;95740.31;4978671;28;20158;-66
2021/07/05 03:00:17;;;;;;;7.03;5.50;;;16.00;82.70;;;14.65;82.58;95749.06;4983514;28;20050;-66
2021/07/05 03:02:44;;;;;;;4.55;2.97;;;16.10;82.50;;;14.65;81.94;95746.41;4980931;28;20383;-66
2021/07/05 03:05:11;;;;;;;3.05;1.63;;;16.00;82.60;;;14.67;82.08;95752.28;4966242;28;20059;-66
2021/07/05 03:07:37;;;;;;;3.03;1.63;;;16.10;82.50;;;14.70;81.86;95740.44;4957306;28;20122;-67
2021/07/05 03:10:08;;;;;;;1.95;1.10;;;16.10;82.70;;;14.72;82.93;95737.59;4946920;28;20114;-67
2021/07/05 03:12:33;;;;;;;5.07;0.90;;;16.10;82.10;;;14.70;82.14;95725.38;4964984;28;20169;-66
2021/07/05 03:14:59;;;;;;;2.28;1.02;;;16.10;81.90;;;14.69;82.48;95736.19;4952829;28;20036;-66
2021/07/05 03:17:25;;;;;;;3.75;1.20;;;16.00;82.20;;;14.66;81.35;95732.16;4968321;28;20590;-66
2021/07/05 03:19:51;;;;;;;4.55;1.05;;;16.00;82.30;;;14.64;82.13;95728.09;4956149;28;20434;-66
2021/07/05 03:22:17;;;;;;;4.43;1.08;;;15.90;82.50;;;14.59;81.62;95726.13;4971525;28;20544;-66
2021/07/05 03:24:43;;;;;;;6.55;1.20;;;15.90;82.60;;;14.56;81.52;95734.53;4971435;28;20035;-67
2021/07/05 03:27:09;;;;;;;2.63;2.00;;;15.80;82.70;;;14.53;81.84;95753.50;4970506;28;20097;-66
2021/07/05 03:29:35;;;;;;;4.07;2.05;;;15.80;82.80;;;14.51;80.86;95763.50;4987804;28;20030;-66
2021/07/05 03:32:01;;;;;;;2.80;1.27;;;15.80;82.90;;;14.46;81.04;95755.41;4971840;28;20058;-66
2021/07/05 03:34:27;;;;;;;2.97;1.20;;;15.70;82.90;;;14.41;82.38;95744.66;4986730;28;20031;-68
2021/07/05 03:36:53;;;;;;;2.47;1.00;;;15.60;83.10;;;14.38;81.79;95734.50;4953694;28;20034;-70
2021/07/05 03:39:19;;;;;;;2.20;1.20;;;15.60;83.20;;;14.36;82.83;95742.66;4983997;28;20121;-70
2021/07/05 03:41:44;;;;;;;1.73;1.10;;;15.60;83.10;;;14.34;82.34;95749.22;4986881;28;20026;-69
2021/07/05 03:44:10;;;;;;;2.25;1.35;;;15.60;83.10;;;14.34;81.55;95739.44;4986525;28;20038;-66
2021/07/05 03:46:36;;;;;;;5.95;1.15;;;15.70;83.10;;;14.34;82.75;95743.91;4977077;28;20078;-66
2021/07/05 03:49:03;;;;;;;2.63;1.17;;;15.70;82.80;;;14.33;83.05;95750.25;4986711;28;20035;-65
2021/07/05 03:51:30;;;;;;;2.70;1.05;;;15.70;82.80;;;14.34;82.88;95754.50;4986432;28;20551;-66
2021/07/05 03:53:55;;;;;;;2.53;1.33;;;15.80;82.80;;;14.33;82.24;95743.13;4964405;28;20031;-66
2021/07/05 03:56:21;;;;;;;3.88;1.25;;;15.80;82.70;;;14.32;81.94;95745.97;4971613;28;20097;-66
2021/07/05 03:58:47;;;;;;;4.38;1.00;;;15.70;82.70;;;14.32;81.43;95753.91;4971430;28;20046;-67
2021/07/05 04:01:13;;;;;;;2.95;1.20;;;15.70;82.90;;;14.34;82.74;95765.09;4971194;28;20070;-66
2021/07/05 04:03:38;;;;;;;3.50;1.33;;;15.70;82.80;;;14.32;82.15;95756.56;4971360;28;20481;-66
2021/07/05 04:06:04;;;;;;;2.97;1.60;;;15.80;82.80;;;14.35;82.35;95756.13;4955415;28;20533;-67
2021/07/05 04:08:32;;;;;;;2.65;1.40;;;15.80;82.70;;;14.35;81.85;95750.81;4985795;28;20066;-67
2021/07/05 04:10:58;;;;;;;2.47;0.93;;;15.70;82.70;;;14.32;81.88;95759.22;4979469;28;20720;-68
2021/07/05 04:13:26;;;;;;;1.95;1.10;;;15.60;82.80;;;14.31;81.66;95754.94;4985178;28;20038;-67
2021/07/05 04:15:52;;;;;;;4.00;1.30;;;15.60;82.90;;;14.30;82.71;95759.44;4970269;28;20038;-67
2021/07/05 04:18:17;;;;;;;2.10;1.30;;;15.70;83.10;;;14.33;82.30;95758.19;4966638;28;20129;-67
2021/07/05 04:20:43;;;;;;;6.75;6.13;;;15.70;83.00;;;14.35;82.34;95766.69;4971084;28;20078;-67
2021/07/05 04:23:09;;;;;;;2.63;2.15;;;15.80;83.10;;;14.38;82.32;95755.69;4983346;28;20066;-68
2021/07/05 04:25:35;;;;;;;1.98;1.30;;;15.80;82.90;;;14.40;81.83;95748.31;4983302;28;20566;-67
2021/07/05 04:28:01;;;;;;;2.55;1.40;;;15.80;82.90;;;14.39;82.81;95750.16;4978222;28;20495;-67
2021/07/05 04:30:30;;;;;;;4.75;1.02;;;15.90;82.80;;;14.39;83.60;95742.22;4987612;28;20118;-66
2021/07/05 04:32:56;;;;;;;4.68;1.10;;;15.80;82.90;;;14.41;81.91;95748.09;4986819;28;20038;-67
2021/07/05 04:35:22;;;;;;;2.35;1.20;;;15.80;83.00;;;14.42;83.10;95751.56;4970147;28;20375;-67
2021/07/05 04:37:49;;;;;;;3.20;1.55;;;15.90;83.00;;;14.48;82.28;95749.88;4970422;28;20031;-67
2021/07/05 04:40:20;;;;;;;2.17;1.13;;;16.00;83.00;;;14.50;82.47;95753.13;4969983;28;20038;-67
2021/07/05 04:42:46;;;;;;;2.15;1.10;;;15.90;82.90;;;14.48;82.17;95760.47;4986291;28;20038;-68
2021/07/05 04:45:13;;;;;;;2.75;1.00;;;15.90;83.30;;;14.49;82.53;95748.88;4970833;28;20828;-68
2021/07/05 04:47:39;;;;;;;6.93;1.40;;;16.00;83.20;;;14.51;83.37;95760.06;4970261;28;20069;-70
2021/07/05 04:50:06;;;;;;;1.75;1.33;;;16.00;83.10;;;14.51;82.28;95766.16;4986134;28;20130;-70
2021/07/05 04:52:32;;;;;;;3.00;1.20;;;15.80;83.20;;;14.49;83.02;95757.63;4987595;28;20054;-68
2021/07/05 04:54:57;;;;;;;2.03;1.30;;;15.80;83.40;;;14.50;82.64;95755.78;4986882;28;20042;-68
2021/07/05 04:57:23;;;;;;;3.08;1.33;;;15.80;83.50;;;14.50;83.05;95747.84;4986129;28;20511;-68
2021/07/05 04:59:49;;;;;;;1.92;1.20;;;15.80;83.70;;;14.51;83.60;95750.28;4954201;28;20067;-69
2021/07/05 05:02:14;;;;;;;1.75;1.40;;;15.90;83.60;;;14.55;82.76;95734.75;4981417;28;20043;-70
2021/07/05 05:04:40;;;;;;;3.83;1.30;;;16.00;83.60;;;14.56;82.44;95742.47;4984961;28;20121;-70
2021/07/05 05:07:07;;;;;;;1.42;1.25;;;15.90;83.30;;;14.56;83.30;95731.88;4974240;28;20081;-69
2021/07/05 05:09:32;;;;;;;2.53;1.48;;;16.00;83.40;;;14.59;82.79;95720.84;4949626;28;20105;-69
2021/07/05 05:11:58;;;;;;;1.20;1.10;;;16.10;83.10;;;14.64;83.28;95733.41;4979266;28;20546;-70
2021/07/05 05:14:24;;;;;;;1.80;1.08;;;16.10;83.00;;;14.69;83.40;95737.00;4969183;28;20054;-68
2021/07/05 05:16:50;;;;;;;1.45;0.90;;;16.20;83.00;;;14.77;84.00;95743.03;4984419;28;20130;-68
2021/07/05 05:19:15;;;;;;;3.50;1.10;;;16.30;83.20;;;14.84;83.49;95743.75;4970162;28;20685;-67
2021/07/05 05:21:41;;;;;;;1.42;1.10;;;16.40;82.80;;;14.85;83.48;95729.47;4984912;28;20399;-68
2021/07/05 05:24:07;;;;;;;2.83;1.15;;;16.40;82.70;;;14.93;82.72;95726.50;4964591;28;20039;-67
2021/07/05 05:26:33;;;;;;;2.03;1.02;;;16.50;82.80;;;15.03;82.47;95737.38;4980736;28;20046;-64
2021/07/05 05:29:00;;;;;;;5.45;3.05;;;16.60;82.70;;;15.11;82.77;95742.34;4969374;28;20077;-66
2021/07/05 05:31:25;;;;;;;3.75;2.78;;;16.70;82.50;;;15.19;82.87;95736.75;4986112;28;20039;-70
2021/07/05 05:33:51;;;;;;;2.75;1.15;;;16.90;82.60;;;15.27;83.82;95738.25;4967563;28;20054;-66
2021/07/05 05:36:17;;;;;;;2.75;1.40;;;16.90;81.70;;;15.35;82.24;95726.50;4969967;28;20522;-66
2021/07/05 05:38:47;;;;;;;2.80;1.52;;;17.00;81.70;;;15.45;82.60;95734.72;4970390;28;20039;-66
2021/07/05 05:41:13;;;;;;;4.47;1.60;;;17.10;81.50;;;15.51;82.99;95734.59;4968266;28;20043;-70
2021/07/05 05:43:39;;;;;;;2.72;1.10;;;17.10;81.10;;;15.57;81.70;95732.88;4973866;28;20038;-69
2021/07/05 05:46:05;;;;;;;1.42;1.08;;;17.10;80.90;;;15.63;81.70;95731.22;4963934;28;20683;-73
2021/07/05 05:48:31;;;;;;;5.05;1.40;;;17.20;81.00;;;15.66;82.55;95726.25;4962625;28;20749;-67
2021/07/05 05:50:56;;;;;;;1.40;1.05;;;17.30;80.90;;;15.78;82.66;95729.69;4982682;28;20035;-65
2021/07/05 05:53:22;;;;;;;1.63;1.10;;;17.60;80.40;;;15.91;82.69;95732.13;4934474;28;20098;-65
2021/07/05 05:55:48;;;;;;;1.52;1.17;;;18.10;78.90;;;16.05;82.55;95729.22;4971818;28;20037;-71
2021/07/05 05:58:15;;;;;;;2.25;1.23;;;18.20;78.40;;;16.21;81.71;95739.13;4985431;28;20039;-69
2021/07/05 06:00:41;;;;;;;2.90;1.20;;;18.40;78.00;;;16.38;81.14;95734.72;4985961;28;20027;-71
2021/07/05 06:03:06;;;;;;;2.35;1.73;;;18.60;75.80;;;16.56;80.98;95740.94;4972521;28;20594;-65
2021/07/05 06:05:32;;;;;;;1.75;1.00;;;18.80;75.20;;;16.73;80.54;95733.84;4984119;28;20030;-70
2021/07/05 06:07:58;;;;;;;1.42;1.10;;;19.10;75.00;;;16.91;80.47;95733.66;4958956;28;20059;-66
2021/07/05 06:10:24;;;;;;;4.07;0.90;;;19.20;73.90;;;17.07;79.69;95743.56;4967706;28;20035;-66
2021/07/05 06:12:51;;;;;;;2.28;1.00;;;19.40;73.80;;;17.24;79.39;95742.78;4984455;28;20034;-66
2021/07/05 06:15:17;;;;;;;1.63;1.00;;;19.40;72.60;;;17.39;79.04;95746.50;4968986;28;20082;-67
2021/07/05 06:17:43;;;;;;;2.15;1.00;;;19.60;73.10;;;17.56;77.85;95741.19;4982862;28;20541;-66
2021/07/05 06:20:10;;;;;;;2.95;0.80;;;19.70;72.00;;;17.68;77.38;95744.63;4981820;28;20125;-66
2021/07/05 06:22:41;;;;;;;1.48;1.00;;;19.90;71.10;;;17.87;76.89;95749.69;4949144;28;20039;-67
2021/07/05 06:25:08;;;;;;;7.95;3.78;;;20.20;71.00;;;18.06;77.41;95746.53;4983453;28;20066;-66
2021/07/05 06:27:34;;;;;;;4.30;2.33;;;20.50;69.40;;;18.26;76.10;95746.00;4982989;28;20089;-67
2021/07/05 06:30:00;;;;;;;2.70;1.30;;;20.80;69.40;;;18.50;75.86;95753.75;4956824;28;20113;-66
2021/07/05 06:32:25;;;;;;;2.35;0.85;;;21.00;68.20;;;18.66;75.69;95756.41;4979916;28;20043;-66
2021/07/05 06:34:51;;;;;;;1.73;1.05;;;21.00;67.80;;;18.83;74.12;95751.03;4980163;28;20039;-65
2021/07/05 06:37:17;;;;;;;2.38;1.85;;;21.50;65.80;;;19.02;74.00;95748.84;4969568;28;20054;-66
2021/07/05 06:39:43;;;;;;;1.00;0.80;;;21.60;65.40;;;19.22;73.37;95753.56;4980932;28;20134;-66
2021/07/05 06:42:08;;;;;;;0.90;0.73;;;21.70;65.10;;;19.43;72.69;95758.03;4977306;28;20058;-69
2021/07/05 06:44:34;;;;;;;1.52;0.70;;;22.00;63.60;;;19.66;72.57;95756.13;4960992;28;20039;-67
2021/07/05 06:47:00;;;;;;;2.15;0.90;;;22.30;63.00;;;19.85;71.95;95752.81;4981421;28;20047;-66
2021/07/05 06:49:25;;;;;;;4.20;1.80;;;22.30;62.70;;;20.06;71.17;95756.44;4987804;28;20162;-67
2021/07/05 06:51:51;;;;;;;1.83;0.95;;;22.60;60.40;;;20.25;70.43;95748.03;4981146;28;20126;-67
2021/07/05 06:54:17;;;;;;;2.08;0.95;;;22.60;60.50;;;20.42;69.10;95740.66;4970261;28;20074;-67
2021/07/05 06:56:43;;;;;;;1.13;0.88;;;22.70;58.80;;;20.53;69.24;95736.97;4955849;28;20050;-67
2021/07/05 06:59:09;;;;;;;4.60;0.70;;;23.00;59.60;;;20.71;68.73;95733.84;4984960;28;20066;-65
2021/07/05 07:01:34;;;;;;;1.83;0.60;;;23.40;59.40;;;20.97;68.36;95725.91;4987497;28;20085;-65
2021/07/05 07:04:01;;;;;;;2.60;0.80;;;23.70;57.50;;;21.25;68.31;95732.69;4949253;28;20463;-65
2021/07/05 07:06:26;;;;;;;1.10;0.52;;;24.10;57.30;;;21.53;67.92;95734.09;4955368;28;20043;-66
2021/07/05 07:08:52;;;;;;;2.97;0.73;;;24.50;55.50;;;21.79;66.38;95727.66;4987805;28;20055;-65
2021/07/05 07:11:19;;;;;;;3.38;1.55;;;24.60;53.90;;;22.00;66.12;95726.56;4965980;28;20058;-67
2021/07/05 07:13:44;;;;;;;2.35;1.10;;;25.00;54.30;;;22.24;65.72;95723.34;4978978;28;20536;-68
2021/07/05 07:16:10;;;;;;;1.00;0.65;;;25.40;53.40;;;22.55;65.38;95719.50;4986823;28;20043;-66
2021/07/05 07:21:35;;;;;;;1.73;0.60;;;25.80;50.80;;;23.03;62.90;95732.44;4974883;28;20126;-67
2021/07/05 07:24:00;;;;;;;1.25;0.50;;;25.70;49.40;;;23.15;61.69;95727.56;4979611;28;20463;-67
2021/07/05 07:26:26;;;;;;;0.77;0.52;;;25.50;49.90;;;23.22;61.35;95722.69;4973750;28;20035;-63
2021/07/05 07:28:52;;;;;;;1.63;0.82;;;25.80;50.00;;;23.33;60.62;95720.75;4969476;28;20093;-65
2021/07/05 07:31:20;;;;;;;3.60;2.05;;;26.00;48.90;;;23.39;58.72;95722.31;4972259;28;20027;-64
2021/07/05 07:33:45;;;;;;;2.22;1.25;;;25.80;48.40;;;23.41;59.86;95720.16;4968989;28;20046;-63
2021/07/05 07:36:11;;;;;;;2.05;0.73;;;25.80;49.60;;;23.51;59.33;95714.69;4987787;28;20066;-64
2021/07/05 07:38:42;;;;;;;1.85;0.57;;;26.10;49.60;;;23.58;59.14;95707.19;4961643;28;20039;-65
2021/07/05 07:41:08;;;;;;;2.25;0.63;;;26.20;49.00;;;23.57;58.74;95702.88;4969711;28;20035;-65
2021/07/05 07:43:34;;;;;;;1.13;0.70;;;26.00;49.40;;;23.60;58.18;95713.06;4982437;28;20388;-65
2021/07/05 07:46:00;;;;;;;2.42;0.82;;;26.00;49.20;;;23.62;58.01;95710.91;4981158;28;20129;-65
2021/07/05 07:48:25;;;;;;;2.53;0.65;;;26.10;50.20;;;23.63;57.52;95711.69;4981332;28;20054;-66
2021/07/05 07:50:51;;;;;;;0.88;0.50;;;26.00;49.40;;;23.63;57.19;95692.91;4971182;28;20035;-67
2021/07/05 07:53:17;;;;;;;1.25;0.60;;;26.00;50.00;;;23.62;57.17;95700.16;4971955;28;20299;-66
2021/07/05 07:55:42;;;;;;;1.48;0.60;;;25.80;48.90;;;23.62;57.47;95705.53;4988875;28;20086;-67
2021/07/05 07:58:08;;;;;;;1.40;0.50;;;25.90;50.10;;;23.62;57.20;95704.72;4981885;28;20449;-67
2021/07/05 08:00:34;;;;;;;3.50;0.70;;;25.70;49.70;;;23.53;57.29;95694.53;4978686;28;20042;-69
2021/07/05 08:03:00;;;;;;;0.60;0.60;;;25.60;50.80;;;23.49;57.19;95700.75;4982559;28;20054;-68
2021/07/05 08:05:25;;;;;;;1.77;0.52;;;25.40;50.50;;;23.42;57.33;95694.91;4974747;28;20161;-67
2021/07/05 08:07:51;;;;;;;0.70;0.60;;;25.40;51.40;;;23.37;57.03;95703.00;4962427;28;20031;-68
2021/07/05 08:10:17;;;;;;;3.13;0.47;;;25.40;51.30;;;23.30;56.67;95697.94;4966424;28;20402;-68
2021/07/05 08:12:44;;;;;;;0.98;0.50;;;25.10;51.10;;;23.26;56.89;95690.72;4985375;28;20045;-70
2021/07/05 08:15:10;;;;;;;0.75;0.57;;;25.10;51.30;;;23.26;56.91;95704.13;4984175;28;20411;-68
2021/07/05 08:17:36;;;;;;;1.48;1.15;;;25.20;51.10;;;23.31;56.76;95699.56;4984777;28;20035;-70
2021/07/05 08:20:06;;;;;;;1.88;1.00;;;25.50;50.60;;;23.37;56.55;95705.69;4986955;28;20165;-70
2021/07/05 08:22:35;;;;;;;1.35;0.60;;;25.60;50.40;;;23.47;55.97;95708.28;4971647;28;20066;-68
2021/07/05 08:25:05;;;;;;;2.95;0.60;;;25.80;50.20;;;23.59;55.83;95705.28;4962382;28;20046;-69
2021/07/05 08:27:33;;;;;;;1.65;0.63;;;26.10;49.60;;;23.66;56.36;95700.41;4984794;28;20030;-69
2021/07/05 08:29:59;;;;;;;1.42;0.80;;;26.20;48.70;;;23.67;56.03;95702.78;4984275;28;20037;-67
2021/07/05 08:32:25;;;;;;;2.20;0.80;;;25.90;48.10;;;23.71;55.48;95703.84;4993768;28;20522;-71
2021/07/05 08:34:50;;;;;;;0.70;0.47;;;25.90;49.60;;;23.79;55.77;95705.13;4954944;28;20038;-72
2021/07/05 08:37:16;;;;;;;2.85;0.55;;;26.30;48.20;;;23.96;55.99;95699.31;4970929;28;20113;-67
2021/07/05 08:39:42;;;;;;;1.25;0.77;;;26.70;49.40;;;24.10;55.49;95693.00;4970215;28;20042;-67
2021/07/05 08:42:08;;;;;;;1.83;0.88;;;26.80;47.80;;;24.28;55.95;95696.88;4987189;28;20118;-69
2021/07/05 08:44:33;;;;;;;0.95;0.40;;;27.00;48.30;;;24.45;54.95;95692.94;4987210;28;20034;-70
2021/07/05 08:46:59;;;;;;;1.60;1.00;;;27.10;46.20;;;24.62;55.03;95696.75;4971200;28;20526;-68
2021/07/05 08:49:25;;;;;;;2.38;0.98;;;27.40;46.40;;;24.75;54.27;95689.88;4986074;28;20038;-68
2021/07/05 08:51:55;;;;;;;0.75;0.50;;;27.40;45.30;;;25.02;51.43;95689.28;4987301;28;20038;-68
2021/07/05 08:54:20;;;;;;;1.33;0.50;;;27.70;44.00;;;25.12;52.46;95699.09;4950342;28;20050;-73
2021/07/05 08:56:46;;;;;;;0.88;0.63;;;27.60;43.20;;;25.23;52.50;95689.78;4972032;28;20382;-68
2021/07/05 08:59:12;;;;;;;1.45;0.60;;;27.70;44.10;;;25.36;52.45;95690.97;4975028;28;20042;-67
2021/07/05 09:01:38;;;;;;;4.82;0.75;;;27.80;44.00;;;25.44;52.31;95693.78;4970330;28;20045;-71
2021/07/05 09:04:03;;;;;;;3.42;0.68;;;27.80;44.80;;;25.45;51.86;95691.88;4972464;28;20038;-69
2021/07/05 09:06:31;;;;;;;4.95;0.80;;;27.60;45.00;;;25.41;51.71;95697.06;4986617;28;20062;-66
2021/07/05 09:08:59;;;;;;;1.42;0.70;;;27.50;44.90;;;25.36;49.69;95705.22;4971157;28;20113;-69
2021/07/05 09:11:48;;;;;;;2.40;0.88;;;27.40;44.10;;;25.33;49.70;95695.00;4968993;28;20046;-67
2021/07/05 09:14:24;;;;;;;6.10;1.38;;;27.30;45.50;;;25.28;50.24;95695.09;4969882;28;20038;-70
2021/07/05 09:16:52;;;;;;;4.03;2.13;;;27.20;46.00;;;25.31;51.41;95699.91;4970209;28;20042;-65
2021/07/05 09:19:27;;;;;;;2.78;0.77;;;27.30;46.40;;;25.29;49.46;95688.63;5004914;28;20030;-69
2021/07/05 09:21:55;;;;;;;1.58;0.52;;;27.30;45.60;;;25.22;51.14;95688.19;4969413;28;20066;-67
2021/07/05 09:24:36;;;;;;;0.90;0.50;;;27.10;44.80;;;25.21;48.92;95691.97;4969886;28;20054;-67
2021/07/05 09:27:08;;;;;;;1.17;0.63;;;27.10;44.60;;;25.14;49.41;95694.25;4981301;28;20041;-67
2021/07/05 09:29:34;;;;;;;0.98;0.60;;;26.90;45.40;;;25.10;50.79;95691.31;4959352;28;20042;-72
2021/07/05 09:32:04;;;;;;;0.98;0.60;;;26.90;45.20;;;25.14;50.27;95692.34;4966540;28;20061;-72
2021/07/05 09:34:32;;;;;;;1.63;0.68;;;27.10;46.00;;;25.20;51.01;95688.50;4967068;28;20063;-66
2021/07/05 09:37:22;;;;;;;0.98;0.40;;;27.30;46.20;;;25.26;50.26;95689.19;4979622;28;20045;-70
2021/07/05 09:40:03;;;;;;;1.15;0.55;;;27.40;46.30;;;25.34;49.76;95691.22;4969943;28;20549;-70
2021/07/05 09:42:48;;;;;;;2.17;0.60;;;27.50;45.40;;;25.43;48.46;95678.72;4985560;28;20105;-69
2021/07/05 09:45:23;;;;;;;1.50;0.70;;;27.70;43.60;;;25.57;49.82;95679.59;4984935;28;20364;-70
2021/07/05 09:48:23;;;;;;;1.35;0.50;;;28.00;44.90;;;25.68;48.38;95688.31;4985049;28;20101;-68
2021/07/05 09:51:02;;;;;;;1.25;0.75;;;28.10;43.30;;;25.79;49.28;95691.63;4982644;28;20424;-67
2021/07/05 09:53:32;;;;;;;0.85;0.55;;;28.20;44.20;;;25.92;48.94;95682.78;4985683;28;20491;-68
2021/07/05 09:56:25;;;;;;;2.05;0.80;;;28.50;43.00;;;26.10;47.38;95686.53;4971251;28;20425;-70
2021/07/05 09:58:54;;;;;;;1.40;0.70;;;28.60;42.20;;;26.15;47.91;95687.22;4961648;28;20114;-66
2021/07/05 10:01:41;;;;;;;1.42;0.68;;;28.50;41.70;;;26.32;46.38;95685.84;4984807;28;20039;-71
2021/07/05 10:04:09;;;;;;;0.98;0.50;;;28.70;40.80;;;26.40;47.53;95680.56;4969241;28;20042;-71
2021/07/05 10:06:41;;;;;;;0.85;0.40;;;28.60;40.90;;;26.53;45.88;95684.38;4983549;28;20039;-70
2021/07/05 10:09:08;;;;;;;1.35;0.50;;;29.00;40.60;;;26.68;47.32;95685.97;4983914;28;20041;-71
2021/07/05 10:11:34;;;;;;;1.30;0.60;;;29.00;40.30;;;26.86;46.04;95685.84;4965627;28;20049;-67
2021/07/05 10:14:21;;;;;;;0.63;0.40;;;29.40;37.80;;;27.09;45.18;95688.63;4976566;28;20038;-68
2021/07/05 10:16:49;;;;;;;2.28;0.70;;;29.70;40.10;;;27.19;45.58;95683.03;4968091;28;20062;-66
2021/07/05 10:19:15;;;;;;;0.60;0.50;;;29.70;39.00;;;27.35;45.26;95684.25;4974710;28;20035;-67
2021/07/05 10:21:41;;;;;;;2.28;0.60;;;29.90;37.10;;;27.45;45.11;95689.44;4934036;28;20046;-67
2021/07/05 10:24:07;;;;;;;2.20;0.68;;;29.80;38.10;;;27.46;44.09;95682.91;4981487;28;20035;-67